createdAt,value
2022-08-17T00:02:25.401Z,26.31
2022-08-17T00:07:28.463Z,26.26
2022-08-17T00:12:42.885Z,26.22
2022-08-17T00:17:48.314Z,26.11
2022-08-17T00:22:50.540Z,26.03
2022-08-17T00:27:52.296Z,25.96
2022-08-17T00:33:14.104Z,25.91
2022-08-17T00:38:19.221Z,25.87
2022-08-17T00:43:38.910Z,25.83
2022-08-17T00:48:42.320Z,25.80
2022-08-17T00:53:49.900Z,25.75
2022-08-17T00:58:54.455Z,25.72
2022-08-17T01:03:57.436Z,25.68
2022-08-17T01:09:03.589Z,25.65
2022-08-17T01:14:05.268Z,25.60
2022-08-17T01:19:16.243Z,25.56
2022-08-17T01:24:18.659Z,25.51
2022-08-17T01:29:23.036Z,25.46
2022-08-17T01:34:25.046Z,25.42
2022-08-17T01:39:56.062Z,25.37
2022-08-17T01:45:02.732Z,25.32
2022-08-17T01:50:16.035Z,25.28
2022-08-17T01:55:27.237Z,25.23
2022-08-17T02:00:47.798Z,25.19
2022-08-17T02:05:53.352Z,25.14
2022-08-17T02:10:55.622Z,25.09
2022-08-17T02:15:59.648Z,25.05
2022-08-17T02:21:02.570Z,24.99
2022-08-17T02:26:05.189Z,24.94
2022-08-17T02:31:11.173Z,24.88
2022-08-17T02:36:13.921Z,24.84
2022-08-17T02:41:15.789Z,24.78
2022-08-17T02:46:17.442Z,24.75
2022-08-17T02:51:19.135Z,24.70
2022-08-17T02:56:20.853Z,24.66
2022-08-17T03:01:22.535Z,24.62
2022-08-17T03:06:24.229Z,24.56
2022-08-17T03:11:25.811Z,24.50
2022-08-17T03:16:27.614Z,24.47
2022-08-17T03:21:29.226Z,24.41
2022-08-17T03:26:32.041Z,24.38
2022-08-17T03:31:33.655Z,24.34
2022-08-17T03:36:38.858Z,24.29
2022-08-17T03:41:40.513Z,24.28
2022-08-17T03:47:01.029Z,24.21
2022-08-17T03:52:22.079Z,24.15
2022-08-17T03:57:25.109Z,24.11
2022-08-17T04:02:32.560Z,24.08
2022-08-17T04:07:34.261Z,24.04
2022-08-17T04:12:49.694Z,24.01
2022-08-17T04:17:52.543Z,23.98
2022-08-17T04:23:09.965Z,23.95
2022-08-17T04:28:15.779Z,23.92
2022-08-17T04:33:21.907Z,23.91
2022-08-17T04:38:27.377Z,23.91
2022-08-17T04:43:31.050Z,23.91
2022-08-17T04:48:37.568Z,23.91
2022-08-17T04:53:42.094Z,23.91
2022-08-17T04:58:46.007Z,23.92
2022-08-17T05:03:47.768Z,23.93
2022-08-17T05:08:49.698Z,23.94
2022-08-17T05:13:51.587Z,23.95
2022-08-17T05:18:53.444Z,23.97
2022-08-17T05:23:58.518Z,24.00
2022-08-17T05:29:02.559Z,24.03
2022-08-17T05:34:04.718Z,24.06
2022-08-17T05:39:06.636Z,24.10
2022-08-17T05:44:08.232Z,24.14
2022-08-17T05:49:19.048Z,24.19
2022-08-17T05:54:39.596Z,24.26
2022-08-17T06:00:15.933Z,24.32
2022-08-17T06:05:50.471Z,24.39
2022-08-17T06:10:55.125Z,24.47
2022-08-17T06:16:33.829Z,24.56
2022-08-17T06:21:37.580Z,24.65
2022-08-17T06:26:45.487Z,24.75
2022-08-17T06:31:47.302Z,24.86
2022-08-17T06:37:25.687Z,24.95
2022-08-17T06:43:05.792Z,25.05
2022-08-17T06:48:25.713Z,25.17
2022-08-17T06:53:35.777Z,25.27
2022-08-17T06:58:40.429Z,25.36
2022-08-17T07:04:11.551Z,25.47
2022-08-17T07:09:31.441Z,25.58
2022-08-17T07:14:48.927Z,25.69
2022-08-17T07:20:08.875Z,25.80
2022-08-17T07:25:18.625Z,25.92
2022-08-17T07:30:45.661Z,26.06
2022-08-17T07:35:50.261Z,26.20
2022-08-17T07:40:58.236Z,26.33
2022-08-17T07:46:21.443Z,26.44
2022-08-17T07:51:26.076Z,26.61
2022-08-17T07:56:37.939Z,26.73
2022-08-17T08:01:42.002Z,26.87
2022-08-17T08:06:52.792Z,26.99
2022-08-17T08:11:54.447Z,27.14
2022-08-17T08:17:10.213Z,27.29
2022-08-17T08:22:22.291Z,27.43
2022-08-17T08:27:45.938Z,27.58
2022-08-17T08:32:54.155Z,27.71
2022-08-17T08:38:20.122Z,27.85
2022-08-17T08:43:36.185Z,27.98
2022-08-17T08:49:10.143Z,28.15
2022-08-17T08:54:26.711Z,28.32
2022-08-17T08:59:57.713Z,28.48
2022-08-17T09:05:22.050Z,28.66
2022-08-17T09:10:49.673Z,28.81
2022-08-17T09:22:12.547Z,29.11
2022-08-17T09:27:22.655Z,29.28
2022-08-17T09:32:41.494Z,29.45
2022-08-17T09:38:23.682Z,29.59
2022-08-17T09:43:41.273Z,29.72
2022-08-17T09:49:01.858Z,29.88
2022-08-17T09:54:21.350Z,30.05
2022-08-17T09:59:38.385Z,30.19
2022-08-17T10:05:07.488Z,30.35
2022-08-17T10:10:25.642Z,30.53
2022-08-17T10:16:08.129Z,30.71
2022-08-17T10:21:33.959Z,30.88
2022-08-17T10:26:40.369Z,30.98
2022-08-17T10:32:09.214Z,31.17
2022-08-17T10:37:20.040Z,31.35
2022-08-17T10:42:34.087Z,31.52
2022-08-17T10:47:56.080Z,31.71
2022-08-17T10:52:59.531Z,31.84
2022-08-17T10:58:21.088Z,31.94
2022-08-17T11:03:25.292Z,32.08
2022-08-17T11:08:45.777Z,32.16
2022-08-17T11:14:17.094Z,32.27
2022-08-17T11:19:38.998Z,32.41
2022-08-17T11:24:45.639Z,32.52
2022-08-17T11:29:59.480Z,32.65
2022-08-17T11:35:20.001Z,32.81
2022-08-17T11:40:41.587Z,32.91
2022-08-17T11:46:13.961Z,32.88
2022-08-17T11:51:33.865Z,33.00
2022-08-17T11:56:38.800Z,33.16
2022-08-17T12:02:01.931Z,33.29
2022-08-17T12:07:08.807Z,33.45
2022-08-17T12:12:14.688Z,33.58
2022-08-17T12:17:40.658Z,33.71
2022-08-17T12:23:10.265Z,33.79
2022-08-17T12:28:29.517Z,33.84
2022-08-17T12:33:31.730Z,33.95
2022-08-17T12:38:36.529Z,34.09
2022-08-17T12:43:38.395Z,34.19
2022-08-17T12:48:40.108Z,34.32
2022-08-17T12:54:02.294Z,34.45
2022-08-17T12:59:04.143Z,34.54
2022-08-17T13:04:06.614Z,34.66
2022-08-17T13:09:19.865Z,34.71
2022-08-17T13:14:22.074Z,34.64
2022-08-17T13:19:29.857Z,34.55
2022-08-17T13:24:57.543Z,34.56
2022-08-17T13:30:01.288Z,34.59
2022-08-17T13:35:29.492Z,34.66
2022-08-17T13:40:50.179Z,34.65
2022-08-17T13:45:53.062Z,34.63
2022-08-17T13:50:54.633Z,34.83
2022-08-17T13:56:37.370Z,35.04
2022-08-17T14:01:42.641Z,35.27
2022-08-17T14:06:52.275Z,35.47
2022-08-17T14:11:57.575Z,35.68
2022-08-17T14:16:59.429Z,35.89
2022-08-17T14:22:01.780Z,35.98
2022-08-17T14:27:06.874Z,36.04
2022-08-17T14:32:23.037Z,36.02
2022-08-17T14:37:28.039Z,36.13
2022-08-17T14:42:33.022Z,36.28
2022-08-17T14:47:37.125Z,36.31
2022-08-17T14:52:43.001Z,36.42
2022-08-17T14:57:45.647Z,36.58
2022-08-17T15:02:56.292Z,36.80
2022-08-17T15:07:59.396Z,36.98
2022-08-17T15:13:01.191Z,37.06
2022-08-17T15:18:03.373Z,37.19
2022-08-17T15:23:07.288Z,37.33
2022-08-17T15:28:08.985Z,37.41
2022-08-17T15:33:17.597Z,37.52
2022-08-17T15:38:19.778Z,37.61
2022-08-17T15:43:27.854Z,37.68
2022-08-17T15:48:41.826Z,37.77
2022-08-17T15:53:46.833Z,37.88
2022-08-17T15:58:49.306Z,37.99
2022-08-17T16:04:04.518Z,37.98
2022-08-17T16:09:08.443Z,37.86
2022-08-17T16:14:10.342Z,37.70
2022-08-17T16:19:15.505Z,37.48
2022-08-17T16:24:17.177Z,37.27
2022-08-17T16:29:18.794Z,37.11
2022-08-17T16:34:21.668Z,36.90
2022-08-17T16:39:29.277Z,36.63
2022-08-17T16:44:32.611Z,36.42
2022-08-17T16:49:37.427Z,36.26
2022-08-17T16:54:43.771Z,36.08
2022-08-17T16:59:50.424Z,35.88
2022-08-17T17:05:02.928Z,35.76
2022-08-17T17:10:12.515Z,35.66
2022-08-17T17:15:20.078Z,35.58
2022-08-17T17:20:28.630Z,35.51
2022-08-17T17:25:57.530Z,35.44
2022-08-17T17:31:05.251Z,35.34
2022-08-17T17:36:29.068Z,35.25
2022-08-17T17:41:41.967Z,35.16
2022-08-17T17:46:50.678Z,35.06
2022-08-17T17:52:05.884Z,34.94
2022-08-17T17:57:17.847Z,34.76
2022-08-17T18:03:01.180Z,34.55
2022-08-17T18:08:34.743Z,34.30
2022-08-17T18:13:53.325Z,34.08
2022-08-17T18:18:57.978Z,33.90
2022-08-17T18:24:02.198Z,33.73
2022-08-17T18:29:22.782Z,33.59
2022-08-17T18:34:47.677Z,33.48
2022-08-17T18:39:49.831Z,33.36
2022-08-17T18:44:55.054Z,33.26
2022-08-17T18:50:18.515Z,33.15
2022-08-17T18:55:28.526Z,33.03
2022-08-17T19:00:38.205Z,32.90
2022-08-17T19:05:43.393Z,32.75
2022-08-17T19:10:47.354Z,32.62
2022-08-17T19:16:11.795Z,32.47
2022-08-17T19:21:23.034Z,32.33
2022-08-17T19:26:54.451Z,32.23
2022-08-17T19:31:58.864Z,32.13
2022-08-17T19:37:09.822Z,32.04
2022-08-17T19:42:18.090Z,31.94
2022-08-17T19:47:54.936Z,31.87
2022-08-17T19:53:18.790Z,31.77
2022-08-17T19:58:48.934Z,31.68
2022-08-17T20:04:20.657Z,31.62
2022-08-17T20:09:34.970Z,31.55
2022-08-17T20:14:55.354Z,31.46
2022-08-17T20:20:20.218Z,31.39
2022-08-17T20:25:35.392Z,31.30
2022-08-17T20:30:42.545Z,31.23
2022-08-17T20:36:02.387Z,31.15
2022-08-17T20:41:04.044Z,31.08
2022-08-17T20:46:28.188Z,30.96
2022-08-17T20:51:34.767Z,30.90
2022-08-17T20:56:43.274Z,30.84
2022-08-17T21:02:17.608Z,30.77
2022-08-17T21:07:42.634Z,30.69
2022-08-17T21:13:23.046Z,30.60
2022-08-17T21:18:48.522Z,30.55
2022-08-17T21:24:20.228Z,30.49
2022-08-17T21:29:32.465Z,30.45
2022-08-17T21:34:42.631Z,30.38
2022-08-17T21:39:49.210Z,30.36
2022-08-17T21:44:57.980Z,30.31
2022-08-17T21:50:19.836Z,30.27
2022-08-17T21:55:29.872Z,30.21
2022-08-17T22:00:32.908Z,30.15
2022-08-17T22:05:37.865Z,30.11
2022-08-17T22:10:44.539Z,30.03
2022-08-17T22:15:49.695Z,29.99
2022-08-17T22:20:55.380Z,29.94
2022-08-17T22:26:09.581Z,29.92
2022-08-17T22:31:20.704Z,29.90
2022-08-17T22:36:24.663Z,29.84
2022-08-17T22:41:39.097Z,29.84
2022-08-17T22:46:50.824Z,29.80
2022-08-17T22:52:01.727Z,29.77
2022-08-17T22:57:23.508Z,29.74
2022-08-17T23:02:28.720Z,29.69
2022-08-17T23:07:30.371Z,29.66
2022-08-17T23:12:33.267Z,29.62
2022-08-17T23:17:37.425Z,29.58
2022-08-17T23:22:51.776Z,29.55
2022-08-17T23:27:55.762Z,29.51
2022-08-17T23:33:01.527Z,29.48
2022-08-17T23:38:03.232Z,29.43
2022-08-17T23:43:24.021Z,29.40
2022-08-17T23:48:36.290Z,29.37
2022-08-17T23:53:42.880Z,29.35
2022-08-17T23:58:44.923Z,29.33
